22:17
Airports
History
Links
Donate
Help keep this website running!
PayPal
Bitcoin
This page is community maintained. The information is intended for PC simulator navigation or reference.
Always use approved charts for navigation.
ETSH
Holzdorf
Holzdorf (ETSH)
Schönewalde, Brandenburg, Germany (4916)
(C)
Lat/Lng:51° 46' 4.2" N / 13° 10' 3.6" E
51.767834 / 13.167667
Elevation:265'ft / 81mMSL
ID / ICAO:ETSH
Runways:1
Longest:09-27
Asphalt 2,414m / 7,920ft
Controlled:Yes
METAR21:20 GMT 2017-09-19
Altimeter: 30.06
Visibility: 6.2 statute miles
Wind: 3 knots (from 270°)
Temp: 11°c / 52°f
Humidity: 81.7%

METAR: ETSH 192120Z 27003KT 9999 BKN090 11/08 Q1018 BLU

(Powered by phpweather)
Airport Radio Frequencies
Tower: 125.8, 122.1, 130.5
Approach: 126.42, 123.3, 129.85
Nearby VORs <50NM
Nearby NDBs
Runway 09 / 27
Dimensions:2414 x 29.9m 7920' x 98'ft
Surface:Asphalt
Edge Lights:High intensity
Runway 09 [A]Runway 27 [B]
Heading:093°TH 273°TH
Lat:
Lng:
51° 46' 6.6"N
13° 9' 0.6"E
51° 46' 1.8"N
13° 11' 6.6"E
ALS:MALSMALS
User Notes and Comments
51° 46' 4.2" N / 13° 10' 3.6" E
Distance To
Airport ID:
Nearby Airports
4 Reinsdorf 9.3 NM
EDOD N
(U) FALKENBERG LONNEWITZ 15.4 NM
EDUF S 170°
4 Finsterwalde 23.5 NM
EDAS ESE 112°
(U) FINSTERWALDE SCHACKSDORF 26.8 NM
EDUS ESE 114°
(C) Schonhagen 30.2 NM
EDAZ N 359°
(C) ROITZSCHJORA 31.7 NM
EDAW WSW 245°
(C) OSCHATZ 32.8 NM
EDOQ S 186°
VFR Chart
Flight Planning at SkyVector.com